sensor_id;sensor_type;location;lat;lon;timestamp;temperature;humidity
35111;DHT22;21290;50.158;8.658;2022-08-11T00:01:26;19.90;67.20
35111;DHT22;21290;50.158;8.658;2022-08-11T00:03:56;20.00;67.30
35111;DHT22;21290;50.158;8.658;2022-08-11T00:06:37;20.00;67.20
35111;DHT22;21290;50.158;8.658;2022-08-11T00:09:09;19.90;67.50
35111;DHT22;21290;50.158;8.658;2022-08-11T00:11:51;19.90;67.80
35111;DHT22;21290;50.158;8.658;2022-08-11T00:14:30;19.80;68.00
35111;DHT22;21290;50.158;8.658;2022-08-11T00:17:07;19.70;68.60
35111;DHT22;21290;50.158;8.658;2022-08-11T00:19:42;19.70;68.50
35111;DHT22;21290;50.158;8.658;2022-08-11T00:22:29;19.70;69.00
35111;DHT22;21290;50.158;8.658;2022-08-11T00:24:57;19.70;69.70
35111;DHT22;21290;50.158;8.658;2022-08-11T00:27:35;19.70;68.80
35111;DHT22;21290;50.158;8.658;2022-08-11T00:30:07;19.80;69.50
35111;DHT22;21290;50.158;8.658;2022-08-11T00:32:36;19.70;69.10
35111;DHT22;21290;50.158;8.658;2022-08-11T00:35:06;19.70;69.60
35111;DHT22;21290;50.158;8.658;2022-08-11T00:37:55;19.60;70.20
35111;DHT22;21290;50.158;8.658;2022-08-11T00:40:30;19.60;70.00
35111;DHT22;21290;50.158;8.658;2022-08-11T00:43:21;19.60;70.00
35111;DHT22;21290;50.158;8.658;2022-08-11T00:49:01;19.60;70.10
35111;DHT22;21290;50.158;8.658;2022-08-11T01:00:18;19.60;70.40
35111;DHT22;21290;50.158;8.658;2022-08-11T01:03:09;19.60;70.50
35111;DHT22;21290;50.158;8.658;2022-08-11T01:18:11;19.60;70.30
35111;DHT22;21290;50.158;8.658;2022-08-11T01:21:14;19.50;71.60
35111;DHT22;21290;50.158;8.658;2022-08-11T01:33:24;19.40;72.40
35111;DHT22;21290;50.158;8.658;2022-08-11T01:50:49;19.30;71.80
35111;DHT22;21290;50.158;8.658;2022-08-11T01:53:38;19.30;71.30
35111;DHT22;21290;50.158;8.658;2022-08-11T01:59:33;19.30;70.80
35111;DHT22;21290;50.158;8.658;2022-08-11T02:08:35;19.40;71.80
35111;DHT22;21290;50.158;8.658;2022-08-11T02:11:27;19.40;72.20
35111;DHT22;21290;50.158;8.658;2022-08-11T02:17:33;19.40;72.50
35111;DHT22;21290;50.158;8.658;2022-08-11T02:20:13;19.30;71.30
35111;DHT22;21290;50.158;8.658;2022-08-11T02:26:43;19.30;72.00
35111;DHT22;21290;50.158;8.658;2022-08-11T02:29:26;19.10;72.20
35111;DHT22;21290;50.158;8.658;2022-08-11T02:32:19;19.10;73.20
35111;DHT22;21290;50.158;8.658;2022-08-11T02:35:46;19.00;73.60
35111;DHT22;21290;50.158;8.658;2022-08-11T02:38:39;18.90;74.20
35111;DHT22;21290;50.158;8.658;2022-08-11T02:47:01;18.80;75.00
35111;DHT22;21290;50.158;8.658;2022-08-11T02:53:00;18.80;74.20
35111;DHT22;21290;50.158;8.658;2022-08-11T03:01:59;18.80;75.50
35111;DHT22;21290;50.158;8.658;2022-08-11T03:04:44;18.80;75.70
35111;DHT22;21290;50.158;8.658;2022-08-11T03:13:24;18.70;76.60
35111;DHT22;21290;50.158;8.658;2022-08-11T03:22:18;18.50;77.30
35111;DHT22;21290;50.158;8.658;2022-08-11T03:25:14;18.60;77.90
35111;DHT22;21290;50.158;8.658;2022-08-11T03:27:51;18.50;78.00
35111;DHT22;21290;50.158;8.658;2022-08-11T03:30:34;18.50;78.40
35111;DHT22;21290;50.158;8.658;2022-08-11T03:33:17;18.50;78.40
35111;DHT22;21290;50.158;8.658;2022-08-11T03:41:40;18.50;78.90
35111;DHT22;21290;50.158;8.658;2022-08-11T03:44:49;18.50;79.60
35111;DHT22;21290;50.158;8.658;2022-08-11T03:50:04;18.50;80.10
35111;DHT22;21290;50.158;8.658;2022-08-11T04:01:37;18.40;80.60
35111;DHT22;21290;50.158;8.658;2022-08-11T04:21:47;18.10;84.40
35111;DHT22;21290;50.158;8.658;2022-08-11T04:27:26;18.10;85.10
35111;DHT22;21290;50.158;8.658;2022-08-11T04:30:26;18.10;85.60
35111;DHT22;21290;50.158;8.658;2022-08-11T04:51:06;18.30;87.10
35111;DHT22;21290;50.158;8.658;2022-08-11T04:57:21;18.10;88.20
35111;DHT22;21290;50.158;8.658;2022-08-11T05:00:17;18.10;88.40
35111;DHT22;21290;50.158;8.658;2022-08-11T05:06:56;18.10;90.00
35111;DHT22;21290;50.158;8.658;2022-08-11T05:12:32;18.20;89.70
35111;DHT22;21290;50.158;8.658;2022-08-11T05:15:02;18.30;89.80
35111;DHT22;21290;50.158;8.658;2022-08-11T05:20:55;18.30;90.20
35111;DHT22;21290;50.158;8.658;2022-08-11T05:23:46;18.30;90.00
35111;DHT22;21290;50.158;8.658;2022-08-11T05:26:45;18.40;90.00
35111;DHT22;21290;50.158;8.658;2022-08-11T05:29:44;18.40;89.80
35111;DHT22;21290;50.158;8.658;2022-08-11T05:32:39;18.50;90.10
35111;DHT22;21290;50.158;8.658;2022-08-11T05:35:48;18.60;90.20
35111;DHT22;21290;50.158;8.658;2022-08-11T05:38:31;18.70;90.00
35111;DHT22;21290;50.158;8.658;2022-08-11T05:41:23;18.70;89.00
35111;DHT22;21290;50.158;8.658;2022-08-11T05:44:10;18.80;90.00
35111;DHT22;21290;50.158;8.658;2022-08-11T05:47:02;18.90;89.10
35111;DHT22;21290;50.158;8.658;2022-08-11T05:49:49;19.00;89.30
35111;DHT22;21290;50.158;8.658;2022-08-11T05:52:44;19.00;89.50
35111;DHT22;21290;50.158;8.658;2022-08-11T05:55:30;19.10;88.40
35111;DHT22;21290;50.158;8.658;2022-08-11T05:58:35;19.30;88.70
35111;DHT22;21290;50.158;8.658;2022-08-11T06:01:30;19.40;87.30
35111;DHT22;21290;50.158;8.658;2022-08-11T06:03:58;19.50;87.40
35111;DHT22;21290;50.158;8.658;2022-08-11T06:07:00;19.60;86.20
35111;DHT22;21290;50.158;8.658;2022-08-11T06:09:32;19.80;86.30
35111;DHT22;21290;50.158;8.658;2022-08-11T06:12:05;20.00;85.40
35111;DHT22;21290;50.158;8.658;2022-08-11T06:14:35;20.10;83.30
35111;DHT22;21290;50.158;8.658;2022-08-11T06:17:06;20.30;83.30
35111;DHT22;21290;50.158;8.658;2022-08-11T06:19:37;20.40;82.90
35111;DHT22;21290;50.158;8.658;2022-08-11T06:22:06;20.50;81.90
35111;DHT22;21290;50.158;8.658;2022-08-11T06:24:36;20.60;81.80
35111;DHT22;21290;50.158;8.658;2022-08-11T06:27:03;20.70;81.80
35111;DHT22;21290;50.158;8.658;2022-08-11T06:29:46;20.90;80.70
35111;DHT22;21290;50.158;8.658;2022-08-11T06:32:25;21.20;80.40
35111;DHT22;21290;50.158;8.658;2022-08-11T06:43:05;22.10;75.70
35111;DHT22;21290;50.158;8.658;2022-08-11T06:45:38;22.30;75.30
35111;DHT22;21290;50.158;8.658;2022-08-11T06:48:08;22.50;74.20
35111;DHT22;21290;50.158;8.658;2022-08-11T06:50:55;22.80;73.60
35111;DHT22;21290;50.158;8.658;2022-08-11T06:53:59;22.90;72.80
35111;DHT22;21290;50.158;8.658;2022-08-11T06:56:36;23.20;71.50
35111;DHT22;21290;50.158;8.658;2022-08-11T06:59:44;23.40;70.80
35111;DHT22;21290;50.158;8.658;2022-08-11T07:02:32;23.60;70.90
35111;DHT22;21290;50.158;8.658;2022-08-11T07:05:04;23.80;69.40
35111;DHT22;21290;50.158;8.658;2022-08-11T07:14:01;24.40;67.40
35111;DHT22;21290;50.158;8.658;2022-08-11T07:16:49;24.60;66.30
35111;DHT22;21290;50.158;8.658;2022-08-11T07:19:21;24.80;65.40
35111;DHT22;21290;50.158;8.658;2022-08-11T07:22:09;25.00;64.80
35111;DHT22;21290;50.158;8.658;2022-08-11T07:25:00;25.20;64.40
35111;DHT22;21290;50.158;8.658;2022-08-11T07:28:10;25.40;63.20
35111;DHT22;21290;50.158;8.658;2022-08-11T07:31:02;25.60;63.70
35111;DHT22;21290;50.158;8.658;2022-08-11T07:33:45;25.90;62.80
35111;DHT22;21290;50.158;8.658;2022-08-11T07:36:33;26.10;62.20
35111;DHT22;21290;50.158;8.658;2022-08-11T07:39:09;26.30;61.30
35111;DHT22;21290;50.158;8.658;2022-08-11T07:41:38;26.50;61.90
35111;DHT22;21290;50.158;8.658;2022-08-11T07:44:06;26.60;60.70
35111;DHT22;21290;50.158;8.658;2022-08-11T07:46:45;26.80;60.20
35111;DHT22;21290;50.158;8.658;2022-08-11T07:49:34;26.90;59.70
35111;DHT22;21290;50.158;8.658;2022-08-11T07:52:21;27.00;59.00
35111;DHT22;21290;50.158;8.658;2022-08-11T07:55:05;27.20;59.60
35111;DHT22;21290;50.158;8.658;2022-08-11T07:57:34;27.40;58.60
35111;DHT22;21290;50.158;8.658;2022-08-11T08:00:44;27.70;58.90
35111;DHT22;21290;50.158;8.658;2022-08-11T08:03:42;28.00;58.10
35111;DHT22;21290;50.158;8.658;2022-08-11T08:06:30;28.30;57.40
35111;DHT22;21290;50.158;8.658;2022-08-11T08:09:19;28.60;57.00
35111;DHT22;21290;50.158;8.658;2022-08-11T08:12:06;29.00;56.30
35111;DHT22;21290;50.158;8.658;2022-08-11T08:14:54;29.30;55.40
35111;DHT22;21290;50.158;8.658;2022-08-11T08:17:43;29.60;54.50
35111;DHT22;21290;50.158;8.658;2022-08-11T08:20:47;29.90;54.70
35111;DHT22;21290;50.158;8.658;2022-08-11T08:23:18;30.30;54.10
35111;DHT22;21290;50.158;8.658;2022-08-11T08:26:08;30.80;53.60
35111;DHT22;21290;50.158;8.658;2022-08-11T08:28:57;31.20;52.20
35111;DHT22;21290;50.158;8.658;2022-08-11T08:31:50;31.70;52.20
35111;DHT22;21290;50.158;8.658;2022-08-11T08:34:17;32.80;50.90
35111;DHT22;21290;50.158;8.658;2022-08-11T08:36:47;34.70;50.50
35111;DHT22;21290;50.158;8.658;2022-08-11T08:39:18;37.50;48.30
35111;DHT22;21290;50.158;8.658;2022-08-11T08:41:53;39.90;45.40
35111;DHT22;21290;50.158;8.658;2022-08-11T08:44:21;40.70;42.50
35111;DHT22;21290;50.158;8.658;2022-08-11T08:47:11;41.00;41.90
35111;DHT22;21290;50.158;8.658;2022-08-11T08:49:44;42.40;40.80
35111;DHT22;21290;50.158;8.658;2022-08-11T08:52:19;43.30;40.60
35111;DHT22;21290;50.158;8.658;2022-08-11T08:55:02;44.00;39.90
35111;DHT22;21290;50.158;8.658;2022-08-11T08:57:32;44.40;39.10
35111;DHT22;21290;50.158;8.658;2022-08-11T09:00:06;44.80;38.60
35111;DHT22;21290;50.158;8.658;2022-08-11T09:02:35;45.30;38.50
35111;DHT22;21290;50.158;8.658;2022-08-11T09:05:03;44.90;38.30
35111;DHT22;21290;50.158;8.658;2022-08-11T09:07:31;44.70;37.80
35111;DHT22;21290;50.158;8.658;2022-08-11T09:10:07;45.00;38.20
35111;DHT22;21290;50.158;8.658;2022-08-11T09:12:35;45.50;37.60
35111;DHT22;21290;50.158;8.658;2022-08-11T09:15:05;45.20;36.60
35111;DHT22;21290;50.158;8.658;2022-08-11T09:17:40;45.50;37.40
35111;DHT22;21290;50.158;8.658;2022-08-11T09:22:37;46.20;36.90
35111;DHT22;21290;50.158;8.658;2022-08-11T09:25:43;45.90;36.40
35111;DHT22;21290;50.158;8.658;2022-08-11T09:28:29;45.70;36.60
35111;DHT22;21290;50.158;8.658;2022-08-11T09:30:59;44.60;36.30
35111;DHT22;21290;50.158;8.658;2022-08-11T09:33:27;43.70;36.10
35111;DHT22;21290;50.158;8.658;2022-08-11T09:35:55;42.40;36.20
35111;DHT22;21290;50.158;8.658;2022-08-11T09:38:23;41.20;36.60
35111;DHT22;21290;50.158;8.658;2022-08-11T09:41:15;41.50;37.50
35111;DHT22;21290;50.158;8.658;2022-08-11T09:43:44;41.70;36.70
35111;DHT22;21290;50.158;8.658;2022-08-11T09:46:30;41.90;36.80
35111;DHT22;21290;50.158;8.658;2022-08-11T09:48:59;41.60;37.00
35111;DHT22;21290;50.158;8.658;2022-08-11T09:51:30;42.10;36.90
35111;DHT22;21290;50.158;8.658;2022-08-11T09:53:59;40.00;36.90
35111;DHT22;21290;50.158;8.658;2022-08-11T09:56:31;39.50;38.40
35111;DHT22;21290;50.158;8.658;2022-08-11T09:59:18;38.60;38.30
35111;DHT22;21290;50.158;8.658;2022-08-11T10:01:48;36.30;39.20
35111;DHT22;21290;50.158;8.658;2022-08-11T10:04:19;35.20;40.30
35111;DHT22;21290;50.158;8.658;2022-08-11T10:06:51;35.80;40.10
35111;DHT22;21290;50.158;8.658;2022-08-11T10:09:46;35.50;40.40
35111;DHT22;21290;50.158;8.658;2022-08-11T10:12:25;35.10;41.00
35111;DHT22;21290;50.158;8.658;2022-08-11T10:14:56;36.30;41.60
35111;DHT22;21290;50.158;8.658;2022-08-11T10:17:45;37.30;39.90
35111;DHT22;21290;50.158;8.658;2022-08-11T10:20:34;37.40;40.00
35111;DHT22;21290;50.158;8.658;2022-08-11T10:23:03;36.40;40.10
35111;DHT22;21290;50.158;8.658;2022-08-11T10:25:49;37.00;39.60
35111;DHT22;21290;50.158;8.658;2022-08-11T10:28:35;38.10;39.50
35111;DHT22;21290;50.158;8.658;2022-08-11T10:31:22;38.20;39.30
35111;DHT22;21290;50.158;8.658;2022-08-11T10:34:25;40.00;37.70
35111;DHT22;21290;50.158;8.658;2022-08-11T10:36:55;41.50;37.20
35111;DHT22;21290;50.158;8.658;2022-08-11T10:39:25;41.40;36.20
35111;DHT22;21290;50.158;8.658;2022-08-11T10:41:53;41.50;36.10
35111;DHT22;21290;50.158;8.658;2022-08-11T10:45:00;41.10;36.90
35111;DHT22;21290;50.158;8.658;2022-08-11T10:47:30;40.30;35.60
35111;DHT22;21290;50.158;8.658;2022-08-11T10:50:14;40.90;36.50
35111;DHT22;21290;50.158;8.658;2022-08-11T10:53:00;40.80;36.90
35111;DHT22;21290;50.158;8.658;2022-08-11T10:55:46;41.10;36.70
35111;DHT22;21290;50.158;8.658;2022-08-11T10:58:32;42.50;36.50
35111;DHT22;21290;50.158;8.658;2022-08-11T11:03:54;43.90;34.50
35111;DHT22;21290;50.158;8.658;2022-08-11T11:09:03;44.00;35.10
35111;DHT22;21290;50.158;8.658;2022-08-11T11:11:35;44.20;35.00
35111;DHT22;21290;50.158;8.658;2022-08-11T11:14:25;44.70;35.10
35111;DHT22;21290;50.158;8.658;2022-08-11T11:17:31;45.30;35.10
35111;DHT22;21290;50.158;8.658;2022-08-11T11:20:28;46.00;33.60
35111;DHT22;21290;50.158;8.658;2022-08-11T11:26:04;45.70;34.70
35111;DHT22;21290;50.158;8.658;2022-08-11T11:32:08;46.40;32.80
35111;DHT22;21290;50.158;8.658;2022-08-11T11:34:53;46.00;33.70
35111;DHT22;21290;50.158;8.658;2022-08-11T11:37:25;44.40;34.20
35111;DHT22;21290;50.158;8.658;2022-08-11T11:39:53;45.00;34.70
35111;DHT22;21290;50.158;8.658;2022-08-11T11:42:20;45.70;34.60
35111;DHT22;21290;50.158;8.658;2022-08-11T11:44:48;45.30;33.70
35111;DHT22;21290;50.158;8.658;2022-08-11T11:47:21;44.90;34.40
35111;DHT22;21290;50.158;8.658;2022-08-11T11:49:48;45.10;34.30
35111;DHT22;21290;50.158;8.658;2022-08-11T11:52:17;45.30;34.00
35111;DHT22;21290;50.158;8.658;2022-08-11T11:54:45;44.80;33.20
35111;DHT22;21290;50.158;8.658;2022-08-11T11:57:17;44.00;33.30
35111;DHT22;21290;50.158;8.658;2022-08-11T12:00:04;42.40;34.00
35111;DHT22;21290;50.158;8.658;2022-08-11T12:03:02;40.80;34.50
35111;DHT22;21290;50.158;8.658;2022-08-11T12:05:32;39.50;35.40
35111;DHT22;21290;50.158;8.658;2022-08-11T12:08:00;38.10;36.30
35111;DHT22;21290;50.158;8.658;2022-08-11T12:13:40;37.10;37.40
35111;DHT22;21290;50.158;8.658;2022-08-11T12:16:11;35.80;37.90
35111;DHT22;21290;50.158;8.658;2022-08-11T12:18:59;35.50;40.00
35111;DHT22;21290;50.158;8.658;2022-08-11T12:21:28;34.80;38.80
35111;DHT22;21290;50.158;8.658;2022-08-11T12:23:56;34.10;39.30
35111;DHT22;21290;50.158;8.658;2022-08-11T12:26:43;33.60;39.90
35111;DHT22;21290;50.158;8.658;2022-08-11T12:29:44;33.20;39.70
35111;DHT22;21290;50.158;8.658;2022-08-11T12:32:20;33.20;39.70
35111;DHT22;21290;50.158;8.658;2022-08-11T12:34:48;33.40;41.40
35111;DHT22;21290;50.158;8.658;2022-08-11T12:37:20;33.50;40.30
35111;DHT22;21290;50.158;8.658;2022-08-11T12:39:52;33.80;39.90
35111;DHT22;21290;50.158;8.658;2022-08-11T12:43:02;34.00;40.20
35111;DHT22;21290;50.158;8.658;2022-08-11T12:46:08;34.10;39.90
35111;DHT22;21290;50.158;8.658;2022-08-11T12:48:39;34.40;39.90
35111;DHT22;21290;50.158;8.658;2022-08-11T12:51:32;34.60;39.90
35111;DHT22;21290;50.158;8.658;2022-08-11T12:54:59;34.30;39.20
35111;DHT22;21290;50.158;8.658;2022-08-11T12:57:46;33.90;39.70
35111;DHT22;21290;50.158;8.658;2022-08-11T13:00:32;33.90;40.50
35111;DHT22;21290;50.158;8.658;2022-08-11T13:03:19;34.10;41.10
35111;DHT22;21290;50.158;8.658;2022-08-11T13:06:06;34.10;38.90
35111;DHT22;21290;50.158;8.658;2022-08-11T13:08:37;33.50;38.70
35111;DHT22;21290;50.158;8.658;2022-08-11T13:11:06;33.10;39.10
35111;DHT22;21290;50.158;8.658;2022-08-11T13:14:12;33.00;39.80
35111;DHT22;21290;50.158;8.658;2022-08-11T13:16:43;32.90;40.10
35111;DHT22;21290;50.158;8.658;2022-08-11T13:19:29;32.70;39.90
35111;DHT22;21290;50.158;8.658;2022-08-11T13:21:57;32.50;40.30
35111;DHT22;21290;50.158;8.658;2022-08-11T13:24:24;32.50;40.20
35111;DHT22;21290;50.158;8.658;2022-08-11T13:26:51;32.60;40.30
35111;DHT22;21290;50.158;8.658;2022-08-11T13:29:20;32.80;40.50
35111;DHT22;21290;50.158;8.658;2022-08-11T13:31:48;33.00;41.00
35111;DHT22;21290;50.158;8.658;2022-08-11T13:34:16;33.30;41.50
35111;DHT22;21290;50.158;8.658;2022-08-11T13:36:44;33.40;40.40
35111;DHT22;21290;50.158;8.658;2022-08-11T13:39:11;33.50;39.50
35111;DHT22;21290;50.158;8.658;2022-08-11T13:41:40;33.20;39.10
35111;DHT22;21290;50.158;8.658;2022-08-11T13:44:12;33.10;39.80
35111;DHT22;21290;50.158;8.658;2022-08-11T13:46:44;33.10;39.60
35111;DHT22;21290;50.158;8.658;2022-08-11T13:49:15;32.80;39.40
35111;DHT22;21290;50.158;8.658;2022-08-11T13:51:42;33.00;39.80
35111;DHT22;21290;50.158;8.658;2022-08-11T13:54:14;33.00;40.10
35111;DHT22;21290;50.158;8.658;2022-08-11T13:56:46;32.90;39.60
35111;DHT22;21290;50.158;8.658;2022-08-11T13:59:17;33.00;39.60
35111;DHT22;21290;50.158;8.658;2022-08-11T14:01:55;32.90;39.70
35111;DHT22;21290;50.158;8.658;2022-08-11T14:07:20;32.70;40.50
35111;DHT22;21290;50.158;8.658;2022-08-11T14:09:55;32.70;40.40
35111;DHT22;21290;50.158;8.658;2022-08-11T14:12:29;32.50;40.20
35111;DHT22;21290;50.158;8.658;2022-08-11T14:15:19;32.40;40.70
35111;DHT22;21290;50.158;8.658;2022-08-11T14:18:35;32.50;40.00
35111;DHT22;21290;50.158;8.658;2022-08-11T14:20:39;32.40;40.30
35111;DHT22;21290;50.158;8.658;2022-08-11T14:23:29;32.60;40.00
35111;DHT22;21290;50.158;8.658;2022-08-11T14:25:57;32.40;40.30
35111;DHT22;21290;50.158;8.658;2022-08-11T14:28:42;32.40;39.90
35111;DHT22;21290;50.158;8.658;2022-08-11T14:31:15;32.10;39.80
35111;DHT22;21290;50.158;8.658;2022-08-11T14:33:43;32.10;40.30
35111;DHT22;21290;50.158;8.658;2022-08-11T14:36:34;32.00;40.10
35111;DHT22;21290;50.158;8.658;2022-08-11T14:39:13;32.10;40.20
35111;DHT22;21290;50.158;8.658;2022-08-11T14:41:45;32.10;40.50
35111;DHT22;21290;50.158;8.658;2022-08-11T14:44:43;32.20;40.50
35111;DHT22;21290;50.158;8.658;2022-08-11T14:47:32;32.10;40.50
35111;DHT22;21290;50.158;8.658;2022-08-11T14:50:00;32.10;40.90
35111;DHT22;21290;50.158;8.658;2022-08-11T14:52:53;32.10;40.90
35111;DHT22;21290;50.158;8.658;2022-08-11T14:55:28;32.00;40.10
35111;DHT22;21290;50.158;8.658;2022-08-11T14:58:16;31.90;40.00
35111;DHT22;21290;50.158;8.658;2022-08-11T15:00:44;32.00;40.80
35111;DHT22;21290;50.158;8.658;2022-08-11T15:03:13;32.10;41.10
35111;DHT22;21290;50.158;8.658;2022-08-11T15:08:35;32.30;40.90
35111;DHT22;21290;50.158;8.658;2022-08-11T15:11:24;32.50;41.40
35111;DHT22;21290;50.158;8.658;2022-08-11T15:14:10;32.40;40.30
35111;DHT22;21290;50.158;8.658;2022-08-11T15:16:43;32.40;40.70
35111;DHT22;21290;50.158;8.658;2022-08-11T15:19:30;32.30;40.60
35111;DHT22;21290;50.158;8.658;2022-08-11T15:22:08;32.10;40.50
35111;DHT22;21290;50.158;8.658;2022-08-11T15:24:57;32.10;41.20
35111;DHT22;21290;50.158;8.658;2022-08-11T15:27:24;32.20;41.20
35111;DHT22;21290;50.158;8.658;2022-08-11T15:30:10;32.20;41.20
35111;DHT22;21290;50.158;8.658;2022-08-11T15:33:05;32.10;41.40
35111;DHT22;21290;50.158;8.658;2022-08-11T15:35:52;32.10;41.40
35111;DHT22;21290;50.158;8.658;2022-08-11T15:39:08;32.10;41.10
35111;DHT22;21290;50.158;8.658;2022-08-11T15:42:07;32.00;41.10
35111;DHT22;21290;50.158;8.658;2022-08-11T15:44:59;31.80;41.30
35111;DHT22;21290;50.158;8.658;2022-08-11T15:47:55;31.80;42.00
35111;DHT22;21290;50.158;8.658;2022-08-11T15:50:33;31.80;42.30
35111;DHT22;21290;50.158;8.658;2022-08-11T15:53:15;31.90;42.90
35111;DHT22;21290;50.158;8.658;2022-08-11T15:55:44;32.00;42.30
35111;DHT22;21290;50.158;8.658;2022-08-11T15:58:12;32.10;42.40
35111;DHT22;21290;50.158;8.658;2022-08-11T16:01:00;32.10;42.40
35111;DHT22;21290;50.158;8.658;2022-08-11T16:03:53;32.00;41.90
35111;DHT22;21290;50.158;8.658;2022-08-11T16:07:09;31.90;41.80
35111;DHT22;21290;50.158;8.658;2022-08-11T16:09:43;31.80;42.10
35111;DHT22;21290;50.158;8.658;2022-08-11T16:12:37;31.60;41.60
35111;DHT22;21290;50.158;8.658;2022-08-11T16:15:06;31.60;42.60
35111;DHT22;21290;50.158;8.658;2022-08-11T16:17:56;31.50;42.50
35111;DHT22;21290;50.158;8.658;2022-08-11T16:20:26;31.50;42.60
35111;DHT22;21290;50.158;8.658;2022-08-11T16:22:58;31.40;42.90
35111;DHT22;21290;50.158;8.658;2022-08-11T16:25:29;31.30;42.00
35111;DHT22;21290;50.158;8.658;2022-08-11T16:28:17;31.20;42.70
35111;DHT22;21290;50.158;8.658;2022-08-11T16:30:47;31.00;42.50
35111;DHT22;21290;50.158;8.658;2022-08-11T16:33:15;30.90;42.50
35111;DHT22;21290;50.158;8.658;2022-08-11T16:36:03;30.80;43.10
35111;DHT22;21290;50.158;8.658;2022-08-11T16:38:49;30.70;43.30
35111;DHT22;21290;50.158;8.658;2022-08-11T16:41:18;30.60;43.60
35111;DHT22;21290;50.158;8.658;2022-08-11T16:44:05;30.60;43.60
35111;DHT22;21290;50.158;8.658;2022-08-11T16:47:09;30.60;43.40
35111;DHT22;21290;50.158;8.658;2022-08-11T16:49:56;30.60;43.40
35111;DHT22;21290;50.158;8.658;2022-08-11T16:52:24;30.50;43.70
35111;DHT22;21290;50.158;8.658;2022-08-11T16:54:51;30.50;43.20
35111;DHT22;21290;50.158;8.658;2022-08-11T16:57:23;30.40;43.50
35111;DHT22;21290;50.158;8.658;2022-08-11T17:00:14;30.40;43.60
35111;DHT22;21290;50.158;8.658;2022-08-11T17:02:51;30.30;43.40
35111;DHT22;21290;50.158;8.658;2022-08-11T17:05:43;30.30;43.20
35111;DHT22;21290;50.158;8.658;2022-08-11T17:08:32;30.30;43.20
35111;DHT22;21290;50.158;8.658;2022-08-11T17:11:27;30.30;43.60
35111;DHT22;21290;50.158;8.658;2022-08-11T17:14:16;30.30;43.30
35111;DHT22;21290;50.158;8.658;2022-08-11T17:17:03;30.30;43.30
35111;DHT22;21290;50.158;8.658;2022-08-11T17:19:32;30.20;43.20
35111;DHT22;21290;50.158;8.658;2022-08-11T17:22:21;30.20;43.30
35111;DHT22;21290;50.158;8.658;2022-08-11T17:25:07;30.20;43.10
35111;DHT22;21290;50.158;8.658;2022-08-11T17:27:36;30.10;43.50
35111;DHT22;21290;50.158;8.658;2022-08-11T17:30:05;30.10;43.50
35111;DHT22;21290;50.158;8.658;2022-08-11T17:32:36;30.00;43.50
35111;DHT22;21290;50.158;8.658;2022-08-11T17:35:29;29.90;43.70
35111;DHT22;21290;50.158;8.658;2022-08-11T17:40:36;29.80;43.80
35111;DHT22;21290;50.158;8.658;2022-08-11T17:43:06;29.80;43.70
35111;DHT22;21290;50.158;8.658;2022-08-11T17:45:54;29.70;43.90
35111;DHT22;21290;50.158;8.658;2022-08-11T17:48:39;29.60;44.00
35111;DHT22;21290;50.158;8.658;2022-08-11T17:51:17;29.50;43.80
35111;DHT22;21290;50.158;8.658;2022-08-11T17:54:05;29.50;43.50
35111;DHT22;21290;50.158;8.658;2022-08-11T17:56:52;29.40;43.70
35111;DHT22;21290;50.158;8.658;2022-08-11T17:59:47;29.30;43.70
35111;DHT22;21290;50.158;8.658;2022-08-11T18:02:41;29.20;43.90
35111;DHT22;21290;50.158;8.658;2022-08-11T18:05:31;29.10;44.00
35111;DHT22;21290;50.158;8.658;2022-08-11T18:08:02;28.90;44.20
35111;DHT22;21290;50.158;8.658;2022-08-11T18:10:49;28.80;44.20
35111;DHT22;21290;50.158;8.658;2022-08-11T18:13:37;28.70;44.60
35111;DHT22;21290;50.158;8.658;2022-08-11T18:16:24;28.50;44.50
35111;DHT22;21290;50.158;8.658;2022-08-11T18:19:10;28.40;44.50
35111;DHT22;21290;50.158;8.658;2022-08-11T18:22:13;28.30;44.40
35111;DHT22;21290;50.158;8.658;2022-08-11T18:25:05;28.10;44.60
35111;DHT22;21290;50.158;8.658;2022-08-11T18:27:54;28.00;44.50
35111;DHT22;21290;50.158;8.658;2022-08-11T18:30:42;27.90;46.10
35111;DHT22;21290;50.158;8.658;2022-08-11T18:33:41;27.80;45.60
35111;DHT22;21290;50.158;8.658;2022-08-11T18:36:44;27.60;45.70
35111;DHT22;21290;50.158;8.658;2022-08-11T18:39:35;27.50;46.20
35111;DHT22;21290;50.158;8.658;2022-08-11T18:42:28;27.30;46.20
35111;DHT22;21290;50.158;8.658;2022-08-11T18:45:16;27.20;46.30
35111;DHT22;21290;50.158;8.658;2022-08-11T18:48:13;27.10;46.90
35111;DHT22;21290;50.158;8.658;2022-08-11T18:51:04;26.90;47.10
35111;DHT22;21290;50.158;8.658;2022-08-11T18:54:07;26.80;47.60
35111;DHT22;21290;50.158;8.658;2022-08-11T18:56:56;26.60;47.50
35111;DHT22;21290;50.158;8.658;2022-08-11T18:59:43;26.50;47.90
35111;DHT22;21290;50.158;8.658;2022-08-11T19:02:31;26.40;47.40
35111;DHT22;21290;50.158;8.658;2022-08-11T19:05:19;26.20;47.80
35111;DHT22;21290;50.158;8.658;2022-08-11T19:08:28;26.10;48.10
35111;DHT22;21290;50.158;8.658;2022-08-11T19:11:14;26.00;48.50
35111;DHT22;21290;50.158;8.658;2022-08-11T19:14:08;25.80;49.00
35111;DHT22;21290;50.158;8.658;2022-08-11T19:16:54;25.80;49.10
35111;DHT22;21290;50.158;8.658;2022-08-11T19:20:10;25.70;49.50
35111;DHT22;21290;50.158;8.658;2022-08-11T19:22:58;25.60;49.90
35111;DHT22;21290;50.158;8.658;2022-08-11T19:25:45;25.50;50.20
35111;DHT22;21290;50.158;8.658;2022-08-11T19:28:33;25.40;50.60
35111;DHT22;21290;50.158;8.658;2022-08-11T19:31:19;25.30;51.00
35111;DHT22;21290;50.158;8.658;2022-08-11T19:34:12;25.10;51.30
35111;DHT22;21290;50.158;8.658;2022-08-11T19:36:58;25.10;51.50
35111;DHT22;21290;50.158;8.658;2022-08-11T19:39:52;25.00;51.90
35111;DHT22;21290;50.158;8.658;2022-08-11T19:42:40;24.90;51.90
35111;DHT22;21290;50.158;8.658;2022-08-11T19:45:25;24.80;52.40
35111;DHT22;21290;50.158;8.658;2022-08-11T19:48:20;24.70;52.80
35111;DHT22;21290;50.158;8.658;2022-08-11T19:51:08;24.60;52.60
35111;DHT22;21290;50.158;8.658;2022-08-11T19:53:55;24.50;52.80
35111;DHT22;21290;50.158;8.658;2022-08-11T19:56:42;24.50;53.10
35111;DHT22;21290;50.158;8.658;2022-08-11T19:59:28;24.40;53.20
35111;DHT22;21290;50.158;8.658;2022-08-11T20:02:15;24.30;53.20
35111;DHT22;21290;50.158;8.658;2022-08-11T20:05:01;24.20;53.20
35111;DHT22;21290;50.158;8.658;2022-08-11T20:07:47;24.20;53.40
35111;DHT22;21290;50.158;8.658;2022-08-11T20:10:35;24.10;53.40
35111;DHT22;21290;50.158;8.658;2022-08-11T20:13:22;24.00;53.70
35111;DHT22;21290;50.158;8.658;2022-08-11T20:16:11;24.00;53.50
35111;DHT22;21290;50.158;8.658;2022-08-11T20:19:00;23.90;53.50
35111;DHT22;21290;50.158;8.658;2022-08-11T20:22:06;23.90;53.30
35111;DHT22;21290;50.158;8.658;2022-08-11T20:24:53;23.80;53.50
35111;DHT22;21290;50.158;8.658;2022-08-11T20:27:40;23.80;53.60